createdAt,value
2022-11-10T00:00:58.641Z,100245.34
2022-11-10T00:03:44.010Z,100242.30
2022-11-10T00:06:29.586Z,100242.59
2022-11-10T00:09:15.254Z,100245.84
2022-11-10T00:12:00.898Z,100244.50
2022-11-10T00:15:04.978Z,100244.71
2022-11-10T00:17:50.254Z,100247.92
2022-11-10T00:20:35.697Z,100243.17
2022-11-10T00:23:21.268Z,100243.15
2022-11-10T00:26:14.985Z,100239.95
2022-11-10T00:29:00.463Z,100236.96
2022-11-10T00:31:46.037Z,100238.00
2022-11-10T00:34:31.481Z,100232.72
2022-11-10T00:37:16.790Z,100227.71
2022-11-10T00:40:02.291Z,100225.73
2022-11-10T00:42:47.543Z,100220.02
2022-11-10T00:45:33.087Z,100219.38
2022-11-10T00:48:18.604Z,100215.51
2022-11-10T00:51:04.296Z,100217.65
2022-11-10T00:53:50.102Z,100216.98
2022-11-10T00:56:35.449Z,100216.70
2022-11-10T00:59:20.875Z,100213.74
2022-11-10T01:02:06.801Z,100208.56
2022-11-10T01:04:52.356Z,100209.52
2022-11-10T01:07:37.857Z,100206.07
2022-11-10T01:10:23.276Z,100203.44
2022-11-10T01:13:09.254Z,100202.56
2022-11-10T01:15:54.516Z,100204.10
2022-11-10T01:18:40.041Z,100198.86
2022-11-10T01:21:26.296Z,100195.16
2022-11-10T01:24:11.570Z,100195.08
2022-11-10T01:26:57.251Z,100188.57
2022-11-10T01:29:42.686Z,100191.89
2022-11-10T01:32:28.343Z,100191.19
2022-11-10T01:35:13.605Z,100188.86
2022-11-10T01:37:59.156Z,100189.31
2022-11-10T01:40:45.067Z,100193.63
2022-11-10T01:43:30.731Z,100197.23
2022-11-10T01:46:16.522Z,100200.89
2022-11-10T01:49:02.371Z,100201.02
2022-11-10T01:51:53.739Z,100202.39
2022-11-10T01:54:41.352Z,100205.83
2022-11-10T01:57:26.792Z,100199.58
2022-11-10T02:00:12.606Z,100195.66
2022-11-10T02:03:02.240Z,100195.27
2022-11-10T02:05:47.266Z,100199.92
2022-11-10T02:08:32.598Z,100198.67
2022-11-10T02:11:17.820Z,100203.07
2022-11-10T02:14:03.502Z,100202.20
2022-11-10T02:16:48.931Z,100200.25
2022-11-10T02:19:40.651Z,100206.98
2022-11-10T02:22:26.386Z,100206.56
2022-11-10T02:25:13.938Z,100204.78
2022-11-10T02:27:59.291Z,100210.36
2022-11-10T02:30:44.965Z,100204.23
2022-11-10T02:33:30.460Z,100204.20
2022-11-10T02:36:16.040Z,100204.03
2022-11-10T02:39:01.534Z,100209.46
2022-11-10T02:41:46.955Z,100210.61
2022-11-10T02:44:32.561Z,100214.13
2022-11-10T02:47:17.546Z,100218.08
2022-11-10T02:50:03.029Z,100214.88
2022-11-10T02:52:48.265Z,100217.20
2022-11-10T02:55:33.575Z,100211.13
2022-11-10T02:58:19.161Z,100208.89
2022-11-10T03:01:05.907Z,100209.10
2022-11-10T03:03:51.419Z,100208.64
2022-11-10T03:06:36.835Z,100208.23
2022-11-10T03:09:22.218Z,100209.14
2022-11-10T03:12:07.836Z,100201.70
2022-11-10T03:14:53.204Z,100198.52
2022-11-10T03:17:38.827Z,100195.58
2022-11-10T03:20:24.249Z,100195.73
2022-11-10T03:23:09.538Z,100198.70
2022-11-10T03:25:54.939Z,100192.88
2022-11-10T03:28:40.364Z,100185.25
2022-11-10T03:31:25.971Z,100190.04
2022-11-10T03:34:11.423Z,100188.44
2022-11-10T03:36:56.747Z,100187.52
2022-11-10T03:39:42.047Z,100187.06
2022-11-10T03:42:27.587Z,100181.08
2022-11-10T03:45:13.761Z,100176.46
2022-11-10T03:47:59.169Z,100177.85
2022-11-10T03:50:44.640Z,100181.27
2022-11-10T03:53:29.736Z,100179.57
2022-11-10T03:56:15.270Z,100174.91
2022-11-10T03:59:00.760Z,100170.02
2022-11-10T04:01:46.203Z,100168.27
2022-11-10T04:04:50.365Z,100167.10
2022-11-10T04:07:54.379Z,100168.72
2022-11-10T04:10:39.897Z,100167.89
2022-11-10T04:13:44.066Z,100168.73
2022-11-10T04:16:29.554Z,100177.91
2022-11-10T04:19:15.030Z,100177.16
2022-11-10T04:22:00.450Z,100180.84
2022-11-10T04:24:45.847Z,100183.55
2022-11-10T04:27:31.173Z,100181.55
2022-11-10T04:30:16.603Z,100183.54
2022-11-10T04:33:02.027Z,100180.46
2022-11-10T04:35:47.332Z,100176.93
2022-11-10T04:38:32.742Z,100179.67
2022-11-10T04:41:17.936Z,100180.71
2022-11-10T04:44:03.470Z,100177.84
2022-11-10T04:46:49.572Z,100180.14
2022-11-10T04:49:34.723Z,100182.36
2022-11-10T04:52:20.245Z,100184.65
2022-11-10T04:55:06.355Z,100186.44
2022-11-10T04:57:51.787Z,100192.26
2022-11-10T05:00:37.071Z,100189.52
2022-11-10T05:03:22.955Z,100191.08
2022-11-10T05:06:08.535Z,100193.98
2022-11-10T05:08:54.092Z,100197.60
2022-11-10T05:11:39.640Z,100207.37
2022-11-10T05:14:25.236Z,100210.98
2022-11-10T05:17:11.089Z,100213.28
2022-11-10T05:19:56.745Z,100214.48
2022-11-10T05:22:49.010Z,100215.11
2022-11-10T05:25:35.985Z,100215.73
2022-11-10T05:28:21.302Z,100216.39
2022-11-10T05:31:07.002Z,100215.85
2022-11-10T05:33:52.160Z,100216.89
2022-11-10T05:36:37.651Z,100220.02
2022-11-10T05:39:22.848Z,100222.39
2022-11-10T05:42:08.331Z,100227.42
2022-11-10T05:44:53.838Z,100230.88
2022-11-10T05:47:39.557Z,100234.42
2022-11-10T05:50:24.777Z,100240.05
2022-11-10T05:53:10.457Z,100243.21
2022-11-10T05:55:55.882Z,100243.88
2022-11-10T05:58:41.411Z,100245.89
2022-11-10T06:01:26.918Z,100245.84
2022-11-10T06:04:12.417Z,100243.60
2022-11-10T06:06:57.916Z,100250.70
2022-11-10T06:09:43.308Z,100254.02
2022-11-10T06:12:30.404Z,100250.52
2022-11-10T06:15:16.973Z,100255.93
2022-11-10T06:18:02.563Z,100258.73
2022-11-10T06:20:47.980Z,100263.23
2022-11-10T06:23:33.280Z,100263.39
2022-11-10T06:26:18.830Z,100262.86
2022-11-10T06:29:04.253Z,100268.27
2022-11-10T06:31:49.611Z,100267.67
2022-11-10T06:34:34.751Z,100268.58
2022-11-10T06:37:20.279Z,100272.15
2022-11-10T06:40:09.739Z,100270.52
2022-11-10T06:42:54.910Z,100268.27
2022-11-10T06:45:40.402Z,100263.92
2022-11-10T06:48:25.748Z,100261.29
2022-11-10T06:51:11.079Z,100262.61
2022-11-10T06:53:56.533Z,100263.24
2022-11-10T06:56:42.284Z,100267.74
2022-11-10T06:59:28.168Z,100263.23
2022-11-10T07:02:14.077Z,100261.37
2022-11-10T07:04:59.512Z,100259.33
2022-11-10T07:07:45.121Z,100261.36
2022-11-10T07:10:30.911Z,100264.74
2022-11-10T07:13:16.892Z,100267.79
2022-11-10T07:16:06.394Z,100269.11
2022-11-10T07:18:51.830Z,100268.58
2022-11-10T07:21:36.921Z,100271.45
2022-11-10T07:24:22.260Z,100270.73
2022-11-10T07:27:08.349Z,100272.64
2022-11-10T07:29:53.333Z,100277.39
2022-11-10T07:32:38.878Z,100275.19
2022-11-10T07:35:24.077Z,100273.89
2022-11-10T07:38:10.919Z,100271.71
2022-11-10T07:40:56.539Z,100271.17
2022-11-10T07:43:42.099Z,100270.91
2022-11-10T07:46:27.716Z,100266.50
2022-11-10T07:49:16.479Z,100279.02
2022-11-10T07:52:01.866Z,100275.94
2022-11-10T07:54:47.266Z,100277.67
2022-11-10T07:57:33.458Z,100278.27
2022-11-10T08:00:19.094Z,100277.14
2022-11-10T08:03:11.693Z,100279.09
2022-11-10T08:05:57.032Z,100274.89
2022-11-10T08:08:42.522Z,100285.10
2022-11-10T08:11:27.840Z,100280.45
2022-11-10T08:14:13.396Z,100279.23
2022-11-10T08:16:58.619Z,100283.39
2022-11-10T08:19:44.154Z,100288.42
2022-11-10T08:22:29.523Z,100289.58
2022-11-10T08:25:14.996Z,100289.32
2022-11-10T08:28:01.418Z,100290.53
2022-11-10T08:30:47.614Z,100293.23
2022-11-10T08:33:32.964Z,100294.89
2022-11-10T08:36:18.480Z,100287.48
2022-11-10T08:39:04.112Z,100292.46
2022-11-10T08:41:49.576Z,100296.22
2022-11-10T08:44:34.986Z,100293.71
2022-11-10T08:47:20.278Z,100292.04
2022-11-10T08:50:06.914Z,100293.89
2022-11-10T08:52:52.309Z,100297.41
2022-11-10T08:55:37.885Z,100297.44
2022-11-10T08:58:23.826Z,100297.55
2022-11-10T09:01:10.133Z,100291.93
2022-11-10T09:03:55.635Z,100287.20
2022-11-10T09:06:41.093Z,100283.11
2022-11-10T09:09:26.670Z,100285.80
2022-11-10T09:12:11.976Z,100282.91
2022-11-10T09:14:57.120Z,100288.27
2022-11-10T09:17:42.284Z,100288.60
2022-11-10T09:20:28.771Z,100287.34
2022-11-10T09:23:19.055Z,100287.05
2022-11-10T09:26:07.704Z,100289.22
2022-11-10T09:28:53.066Z,100289.77
2022-11-10T09:31:38.423Z,100290.01
2022-11-10T09:34:23.876Z,100291.95
2022-11-10T09:37:09.482Z,100282.52
2022-11-10T09:41:09.146Z,100290.02
2022-11-10T09:44:02.076Z,100288.56
2022-11-10T09:46:57.929Z,100286.67
2022-11-10T09:49:46.791Z,100286.39
2022-11-10T09:52:33.268Z,100284.50
2022-11-10T09:55:57.182Z,100284.52
2022-11-10T09:58:43.423Z,100279.84
2022-11-10T10:01:50.832Z,100279.10
2022-11-10T10:05:04.400Z,100277.73
2022-11-10T10:08:14.179Z,100278.25
2022-11-10T10:11:14.751Z,100274.75
2022-11-10T10:14:06.575Z,100277.36
2022-11-10T10:17:10.936Z,100281.02
2022-11-10T10:20:00.654Z,100281.11
2022-11-10T10:22:55.601Z,100275.23
2022-11-10T10:25:40.719Z,100280.66
2022-11-10T10:28:33.701Z,100279.77
2022-11-10T10:31:24.977Z,100282.43
2022-11-10T10:34:12.839Z,100283.45
2022-11-10T10:36:58.044Z,100280.36
2022-11-10T10:39:45.021Z,100282.33
2022-11-10T10:42:34.850Z,100281.25
2022-11-10T10:45:29.146Z,100278.88
2022-11-10T10:48:28.622Z,100278.05
2022-11-10T10:51:28.780Z,100280.71
2022-11-10T10:54:23.907Z,100278.37
2022-11-10T10:57:25.670Z,100279.27
2022-11-10T11:00:23.623Z,100278.63
2022-11-10T11:03:14.229Z,100284.68
2022-11-10T11:06:01.261Z,100285.94
2022-11-10T11:09:00.353Z,100289.08
2022-11-10T11:11:46.404Z,100290.45
2022-11-10T11:14:32.051Z,100289.95
2022-11-10T11:17:21.871Z,100290.71
2022-11-10T11:20:13.527Z,100287.98
2022-11-10T11:23:12.018Z,100299.18
2022-11-10T11:26:00.935Z,100300.98
2022-11-10T11:29:13.642Z,100299.77
2022-11-10T11:32:29.219Z,100302.08
2022-11-10T11:35:20.036Z,100299.21
2022-11-10T11:38:11.264Z,100299.40
2022-11-10T11:41:16.705Z,100304.02
2022-11-10T11:44:01.813Z,100298.85
2022-11-10T11:47:09.412Z,100300.81
2022-11-10T11:50:19.843Z,100302.05
2022-11-10T11:53:37.397Z,100298.48
2022-11-10T11:56:31.177Z,100299.40
2022-11-10T11:59:20.438Z,100292.82
2022-11-10T12:02:28.647Z,100295.58
2022-11-10T12:05:43.945Z,100288.70
2022-11-10T12:09:03.674Z,100287.70
2022-11-10T12:12:23.422Z,100286.35
2022-11-10T12:15:21.977Z,100284.10
2022-11-10T12:18:30.322Z,100284.43
2022-11-10T12:21:21.456Z,100286.82
2022-11-10T12:24:34.897Z,100289.12
2022-11-10T12:27:29.048Z,100285.92
2022-11-10T12:30:15.506Z,100291.03
2022-11-10T12:33:04.542Z,100291.91
2022-11-10T12:35:49.867Z,100288.14
2022-11-10T12:38:42.117Z,100290.60
2022-11-10T12:41:43.701Z,100292.48
2022-11-10T12:44:32.766Z,100286.75
2022-11-10T12:47:19.247Z,100290.91
2022-11-10T12:50:16.728Z,100288.89
2022-11-10T12:53:05.581Z,100286.72
2022-11-10T12:56:02.704Z,100290.52
2022-11-10T12:58:48.339Z,100295.25
2022-11-10T13:01:33.810Z,100296.96
2022-11-10T13:04:19.404Z,100297.70
2022-11-10T13:07:10.231Z,100298.63
2022-11-10T13:10:15.458Z,100298.83
2022-11-10T13:13:03.877Z,100300.21
2022-11-10T13:15:51.492Z,100296.23
2022-11-10T13:18:36.679Z,100294.77
2022-11-10T13:21:50.946Z,100293.66
2022-11-10T13:24:40.847Z,100295.27
2022-11-10T13:27:26.466Z,100299.94
2022-11-10T13:30:39.040Z,100317.02
2022-11-10T13:33:35.098Z,100320.98
2022-11-10T13:36:42.734Z,100320.05
2022-11-10T13:39:32.365Z,100317.94
2022-11-10T13:42:23.380Z,100327.52
2022-11-10T13:45:31.866Z,100319.72
2022-11-10T13:48:17.400Z,100313.30
2022-11-10T13:51:42.779Z,100310.19
2022-11-10T13:54:49.905Z,100312.94
2022-11-10T13:57:40.124Z,100313.95
2022-11-10T14:00:33.227Z,100312.15
2022-11-10T14:03:46.588Z,100311.62
2022-11-10T14:06:45.670Z,100310.81
2022-11-10T14:09:39.605Z,100311.36
2022-11-10T14:12:45.545Z,100312.62
2022-11-10T14:15:36.570Z,100306.77
2022-11-10T14:18:25.179Z,100314.95
2022-11-10T14:21:12.521Z,100306.06
2022-11-10T14:24:04.336Z,100304.69
2022-11-10T14:26:53.389Z,100306.11
2022-11-10T14:29:40.049Z,100305.61
2022-11-10T14:32:26.008Z,100300.30
2022-11-10T14:35:24.786Z,100299.14
2022-11-10T14:38:24.067Z,100300.17
2022-11-10T14:41:15.525Z,100293.25
2022-11-10T14:44:03.192Z,100292.54
2022-11-10T14:46:48.569Z,100295.08
2022-11-10T14:49:33.996Z,100293.60
2022-11-10T14:52:19.126Z,100293.48
2022-11-10T14:55:13.734Z,100295.85
2022-11-10T14:58:18.253Z,100298.73
2022-11-10T15:01:04.836Z,100298.15
2022-11-10T15:03:50.523Z,100298.99
2022-11-10T15:06:36.171Z,100303.05
2022-11-10T15:09:29.729Z,100305.68
2022-11-10T15:12:26.306Z,100306.90
2022-11-10T15:15:22.078Z,100306.55
2022-11-10T15:18:07.912Z,100310.44
2022-11-10T15:21:03.979Z,100305.91
2022-11-10T15:23:56.712Z,100308.72
2022-11-10T15:26:41.743Z,100306.64
2022-11-10T15:29:27.175Z,100308.02
2022-11-10T15:32:16.408Z,100309.67
2022-11-10T15:35:14.890Z,100303.05
2022-11-10T15:38:09.456Z,100302.56
2022-11-10T15:41:05.411Z,100301.80
2022-11-10T15:43:50.749Z,100304.71
2022-11-10T15:46:36.070Z,100304.86
2022-11-10T15:49:36.938Z,100305.99
2022-11-10T15:52:22.474Z,100306.95
2022-11-10T15:55:22.754Z,100301.06
2022-11-10T15:58:14.936Z,100301.13
2022-11-10T16:01:01.105Z,100295.58
2022-11-10T16:03:46.584Z,100291.69
2022-11-10T16:06:32.562Z,100288.34
2022-11-10T16:09:18.079Z,100291.55
2022-11-10T16:12:04.051Z,100290.22
2022-11-10T16:14:51.654Z,100289.42
2022-11-10T16:17:37.090Z,100283.23
2022-11-10T16:20:22.409Z,100292.98
2022-11-10T16:23:07.857Z,100290.26
2022-11-10T16:25:54.618Z,100291.30
2022-11-10T16:28:42.040Z,100291.66
2022-11-10T16:31:27.307Z,100292.27
2022-11-10T16:34:13.839Z,100295.86
2022-11-10T16:36:59.296Z,100300.16
2022-11-10T16:39:44.874Z,100300.37
2022-11-10T16:42:30.212Z,100301.98
2022-11-10T16:45:20.818Z,100302.19
2022-11-10T16:48:07.550Z,100302.37
2022-11-10T16:50:54.236Z,100297.17
2022-11-10T16:53:39.324Z,100297.38
2022-11-10T16:56:26.788Z,100297.15
2022-11-10T16:59:13.528Z,100301.41
2022-11-10T17:01:58.950Z,100293.14
2022-11-10T17:04:44.759Z,100304.67
2022-11-10T17:07:30.360Z,100307.95
2022-11-10T17:10:16.505Z,100308.79
2022-11-10T17:13:02.229Z,100305.04
2022-11-10T17:15:47.788Z,100305.23
2022-11-10T17:18:33.882Z,100302.60
2022-11-10T17:21:19.545Z,100299.73
2022-11-10T17:24:05.130Z,100297.45
2022-11-10T17:26:50.392Z,100303.69
2022-11-10T17:29:36.017Z,100306.78
2022-11-10T17:32:37.097Z,100309.80
2022-11-10T17:35:26.970Z,100304.74
2022-11-10T17:38:13.451Z,100307.59
2022-11-10T17:40:58.933Z,100312.15
2022-11-10T17:43:47.362Z,100310.65
2022-11-10T17:46:32.750Z,100310.27
2022-11-10T17:49:18.038Z,100313.15
2022-11-10T17:52:03.945Z,100310.90
2022-11-10T17:54:48.949Z,100305.53
2022-11-10T17:57:34.937Z,100305.25
2022-11-10T18:00:20.928Z,100303.81
2022-11-10T18:03:08.728Z,100301.64
2022-11-10T18:05:53.976Z,100295.41
2022-11-10T18:08:39.110Z,100286.95
2022-11-10T18:11:24.548Z,100294.27
2022-11-10T18:14:11.157Z,100298.90
2022-11-10T18:16:56.575Z,100305.70
2022-11-10T18:19:42.116Z,100307.46
2022-11-10T18:22:27.634Z,100315.84
2022-11-10T18:25:13.095Z,100316.58
2022-11-10T18:27:58.688Z,100317.02
2022-11-10T18:30:44.081Z,100317.48
2022-11-10T18:33:29.529Z,100319.02
2022-11-10T18:36:15.157Z,100315.91
2022-11-10T18:39:00.528Z,100322.55
2022-11-10T18:41:48.921Z,100325.98
2022-11-10T18:44:37.126Z,100323.63
2022-11-10T18:47:22.588Z,100319.79
2022-11-10T18:50:08.672Z,100323.65
2022-11-10T18:52:53.714Z,100329.37
2022-11-10T18:55:44.343Z,100333.96
2022-11-10T18:58:30.952Z,100335.05
2022-11-10T19:01:16.500Z,100333.25
2022-11-10T19:04:01.888Z,100337.77
2022-11-10T19:06:47.018Z,100335.02
2022-11-10T19:09:32.204Z,100332.20
2022-11-10T19:12:20.367Z,100340.44
2022-11-10T19:15:08.692Z,100337.58
2022-11-10T19:17:53.903Z,100343.73
2022-11-10T19:20:39.475Z,100345.70
2022-11-10T19:23:25.369Z,100343.13
2022-11-10T19:26:17.898Z,100342.47
2022-11-10T19:29:06.742Z,100337.75
2022-11-10T19:31:51.959Z,100342.73
2022-11-10T19:34:37.540Z,100340.34
2022-11-10T19:37:22.963Z,100337.79
2022-11-10T19:40:09.161Z,100337.25
2022-11-10T19:42:54.271Z,100334.02
2022-11-10T19:45:39.725Z,100337.80
2022-11-10T19:48:25.391Z,100335.38
2022-11-10T19:51:13.606Z,100334.09
2022-11-10T19:54:05.006Z,100327.78
2022-11-10T19:56:52.412Z,100332.42
2022-11-10T19:59:37.751Z,100327.96
2022-11-10T20:02:23.233Z,100332.41
2022-11-10T20:05:16.191Z,100333.20
2022-11-10T20:08:13.401Z,100337.50
2022-11-10T20:11:05.151Z,100341.59
2022-11-10T20:13:54.627Z,100336.73
2022-11-10T20:16:40.324Z,100333.60
2022-11-10T20:19:26.026Z,100333.38
2022-11-10T20:22:12.793Z,100336.64
2022-11-10T20:24:58.305Z,100331.83
2022-11-10T20:27:44.296Z,100332.16
2022-11-10T20:30:29.993Z,100332.86
2022-11-10T20:33:15.605Z,100340.77
2022-11-10T20:36:15.988Z,100339.14
2022-11-10T20:39:04.644Z,100340.21
2022-11-10T20:41:52.566Z,100339.27
2022-11-10T20:44:38.154Z,100341.96
2022-11-10T20:47:23.682Z,100338.00
2022-11-10T20:50:14.785Z,100339.83
2022-11-10T20:53:01.692Z,100343.88
2022-11-10T20:55:54.320Z,100346.67
2022-11-10T20:58:40.348Z,100349.19
2022-11-10T21:01:25.700Z,100349.70
2022-11-10T21:04:11.160Z,100353.33
2022-11-10T21:06:56.391Z,100355.04
2022-11-10T21:09:41.978Z,100352.91
2022-11-10T21:12:46.086Z,100349.91
2022-11-10T21:15:31.381Z,100358.38
2022-11-10T21:18:17.224Z,100358.46
2022-11-10T21:21:03.887Z,100358.37
2022-11-10T21:23:57.075Z,100364.16
2022-11-10T21:26:42.444Z,100369.73
2022-11-10T21:29:28.107Z,100373.88
2022-11-10T21:32:13.363Z,100375.71
2022-11-10T21:34:58.573Z,100369.98
2022-11-10T21:37:43.795Z,100370.98
2022-11-10T21:40:30.348Z,100368.91
2022-11-10T21:43:15.576Z,100372.33
2022-11-10T21:46:05.987Z,100373.58
2022-11-10T21:48:51.363Z,100370.96
2022-11-10T21:51:36.788Z,100366.65
2022-11-10T21:54:22.220Z,100367.91
2022-11-10T21:58:13.798Z,100362.70
2022-11-10T22:01:04.906Z,100365.36
2022-11-10T22:03:50.513Z,100365.61
2022-11-10T22:06:55.015Z,100366.16
2022-11-10T22:09:58.936Z,100365.30
2022-11-10T22:13:03.224Z,100361.33
2022-11-10T22:16:07.794Z,100363.81
2022-11-10T22:18:53.025Z,100364.15
2022-11-10T22:21:38.441Z,100366.81
2022-11-10T22:24:23.783Z,100363.66
2022-11-10T22:27:09.205Z,100371.23
2022-11-10T22:29:54.603Z,100369.44
2022-11-10T22:32:39.924Z,100365.58
2022-11-10T22:35:43.221Z,100373.89
2022-11-10T22:38:33.638Z,100378.31
2022-11-10T22:41:37.563Z,100378.19
2022-11-10T22:44:25.193Z,100379.80
2022-11-10T22:47:10.962Z,100382.01
2022-11-10T22:49:56.577Z,100383.31
2022-11-10T22:52:42.100Z,100386.40
2022-11-10T22:55:27.414Z,100384.70
2022-11-10T22:58:12.860Z,100383.36
2022-11-10T23:01:11.376Z,100381.44
2022-11-10T23:04:00.673Z,100378.98
2022-11-10T23:06:46.229Z,100385.63
2022-11-10T23:09:31.410Z,100377.52
2022-11-10T23:12:16.779Z,100379.83
2022-11-10T23:15:02.244Z,100383.34
2022-11-10T23:17:47.734Z,100380.83
2022-11-10T23:20:33.031Z,100382.48
2022-11-10T23:23:18.192Z,100379.98
2022-11-10T23:26:06.130Z,100375.77
2022-11-10T23:28:52.531Z,100375.96
2022-11-10T23:31:37.665Z,100377.63
2022-11-10T23:34:22.931Z,100379.34
2022-11-10T23:37:08.229Z,100374.91
2022-11-10T23:39:53.631Z,100376.68
2022-11-10T23:42:39.059Z,100390.33
2022-11-10T23:45:29.794Z,100386.06
2022-11-10T23:48:22.642Z,100385.31
2022-11-10T23:51:10.466Z,100383.84
2022-11-10T23:53:55.861Z,100391.58
2022-11-10T23:56:41.379Z,100392.37
2022-11-10T23:59:26.804Z,100390.05
